createdAt,value
2023-02-05T00:00:00.437Z,9.02
2023-02-05T00:02:29.964Z,7.28
2023-02-05T00:04:59.398Z,8.10
2023-02-05T00:07:29.074Z,6.38
2023-02-05T00:09:58.526Z,8.20
2023-02-05T00:12:27.948Z,10.57
2023-02-05T00:15:00.020Z,9.30
2023-02-05T00:17:29.517Z,6.22
2023-02-05T00:19:59.235Z,9.90
2023-02-05T00:22:28.648Z,7.93
2023-02-05T00:24:58.078Z,11.02
2023-02-05T00:27:27.486Z,8.77
2023-02-05T00:29:56.856Z,9.05
2023-02-05T00:32:31.482Z,7.53
2023-02-05T00:35:00.847Z,8.90
2023-02-05T00:37:30.276Z,8.02
2023-02-05T00:39:59.711Z,7.70
2023-02-05T00:42:29.107Z,8.63
2023-02-05T00:44:58.545Z,7.82
2023-02-05T00:47:30.536Z,8.40
2023-02-05T00:50:00.205Z,9.40
2023-02-05T00:52:29.606Z,10.85
2023-02-05T00:54:59.047Z,5.43
2023-02-05T00:57:28.457Z,7.00
2023-02-05T00:59:57.868Z,6.20
2023-02-05T01:02:29.978Z,6.93
2023-02-05T01:04:59.382Z,8.13
2023-02-05T01:07:28.784Z,8.77
2023-02-05T01:09:58.172Z,7.10
2023-02-05T01:12:27.768Z,10.98
2023-02-05T01:14:57.206Z,6.68
2023-02-05T01:17:26.598Z,6.03
2023-02-05T01:19:58.840Z,6.93
2023-02-05T01:22:28.275Z,10.25
2023-02-05T01:24:57.669Z,5.13
2023-02-05T01:27:27.240Z,7.70
2023-02-05T01:29:56.627Z,5.28
2023-02-05T01:32:26.024Z,8.25
2023-02-05T01:34:58.134Z,6.95
2023-02-05T01:37:27.884Z,6.07
2023-02-05T01:39:57.249Z,6.05
2023-02-05T01:42:28.966Z,4.00
2023-02-05T01:45:36.755Z,7.85
2023-02-05T01:48:07.293Z,4.15
2023-02-05T01:50:44.113Z,5.60
2023-02-05T01:53:16.651Z,5.82
2023-02-05T01:55:56.384Z,4.68
2023-02-05T01:58:27.587Z,4.50
2023-02-05T02:00:57.078Z,6.60
2023-02-05T02:03:28.034Z,3.20
2023-02-05T02:06:00.205Z,4.70
2023-02-05T02:08:31.567Z,5.88
2023-02-05T02:11:01.661Z,6.65
2023-02-05T02:13:31.934Z,4.60
2023-02-05T02:16:01.501Z,4.93
2023-02-05T02:18:31.051Z,3.83
2023-02-05T02:21:32.180Z,8.88
2023-02-05T02:24:54.687Z,3.90
2023-02-05T02:27:45.430Z,5.50
2023-02-05T02:30:23.950Z,3.75
2023-02-05T02:32:59.983Z,5.25
2023-02-05T02:35:33.378Z,3.92
2023-02-05T02:38:09.374Z,5.68
2023-02-05T02:40:41.751Z,6.45
2023-02-05T02:43:17.154Z,5.88
2023-02-05T02:45:49.274Z,3.55
2023-02-05T02:48:19.539Z,3.95
2023-02-05T02:50:52.439Z,5.07
2023-02-05T02:53:23.565Z,3.53
2023-02-05T02:55:53.654Z,4.13
2023-02-05T02:58:28.170Z,3.80
2023-02-05T03:00:58.220Z,9.98
2023-02-05T03:03:29.057Z,5.07
2023-02-05T03:06:00.863Z,4.70
2023-02-05T03:08:32.536Z,5.22
2023-02-05T03:11:04.875Z,4.85
2023-02-05T03:13:37.702Z,4.97
2023-02-05T03:16:08.281Z,4.43
2023-02-05T03:18:37.836Z,7.20
2023-02-05T03:21:12.528Z,4.30
2023-02-05T03:23:42.227Z,5.15
2023-02-05T03:26:25.494Z,4.40
2023-02-05T03:28:58.495Z,7.40
2023-02-05T03:31:34.282Z,7.70
2023-02-05T03:34:10.828Z,4.53
2023-02-05T03:36:48.931Z,3.33
2023-02-05T03:39:27.439Z,7.28
2023-02-05T03:42:05.018Z,4.38
2023-02-05T03:44:56.787Z,3.88
2023-02-05T03:47:35.619Z,5.20
2023-02-05T03:50:14.561Z,3.60
2023-02-05T03:52:48.350Z,5.75
2023-02-05T03:55:21.709Z,4.63
2023-02-05T03:57:54.768Z,5.85
2023-02-05T04:00:27.823Z,5.63
2023-02-05T04:02:57.389Z,6.70
2023-02-05T04:05:26.852Z,4.53
2023-02-05T04:07:56.382Z,4.45
2023-02-05T04:10:26.149Z,5.15
2023-02-05T04:12:55.549Z,4.22
2023-02-05T04:15:27.614Z,7.40
2023-02-05T04:17:57.947Z,7.80
2023-02-05T04:20:27.493Z,3.67
2023-02-05T04:22:56.898Z,5.03
2023-02-05T04:25:26.342Z,4.13
2023-02-05T04:27:57.046Z,7.95
2023-02-05T04:30:29.080Z,7.68
2023-02-05T04:32:58.543Z,4.57
2023-02-05T04:35:28.211Z,5.10
2023-02-05T04:37:57.629Z,3.65
2023-02-05T04:40:27.035Z,7.00
2023-02-05T04:42:56.408Z,8.82
2023-02-05T04:45:29.075Z,5.22
2023-02-05T04:48:01.366Z,6.30
2023-02-05T04:50:30.905Z,6.30
2023-02-05T04:53:02.174Z,9.60
2023-02-05T04:55:32.119Z,5.07
2023-02-05T04:58:03.024Z,4.82
2023-02-05T05:00:32.787Z,5.20
2023-02-05T05:03:05.100Z,4.22
2023-02-05T05:05:34.802Z,6.53
2023-02-05T05:08:04.399Z,5.45
2023-02-05T05:10:33.803Z,5.57
2023-02-05T05:13:03.218Z,5.85
2023-02-05T05:15:33.073Z,4.53
2023-02-05T05:18:05.301Z,6.22
2023-02-05T05:20:34.721Z,5.07
2023-02-05T05:23:04.278Z,6.57
2023-02-05T05:25:33.910Z,5.88
2023-02-05T05:28:03.480Z,4.53
2023-02-05T05:30:32.954Z,6.22
2023-02-05T05:33:04.907Z,6.50
2023-02-05T05:35:34.732Z,4.88
2023-02-05T05:38:04.591Z,4.65
2023-02-05T05:40:46.741Z,6.55
2023-02-05T05:43:30.356Z,4.45
2023-02-05T05:45:59.907Z,5.25
2023-02-05T05:48:31.953Z,6.47
2023-02-05T05:51:01.369Z,6.68
2023-02-05T05:53:30.814Z,23.70
2023-02-05T05:56:00.228Z,62.78
2023-02-05T05:58:29.681Z,41.38
2023-02-05T06:00:59.275Z,16.20
2023-02-05T06:03:28.693Z,14.00
2023-02-05T06:06:03.631Z,8.73
2023-02-05T06:08:33.108Z,7.90
2023-02-05T06:11:02.566Z,8.33
2023-02-05T06:13:31.951Z,5.27
2023-02-05T06:16:01.363Z,6.60
2023-02-05T06:18:30.874Z,4.00
2023-02-05T06:21:03.605Z,5.70
2023-02-05T06:23:33.037Z,8.93
2023-02-05T06:26:02.460Z,4.45
2023-02-05T06:28:31.817Z,5.18
2023-02-05T06:31:01.382Z,4.68
2023-02-05T06:33:30.849Z,8.02
2023-02-05T06:36:02.804Z,7.85
2023-02-05T06:38:32.223Z,5.10
2023-02-05T06:41:01.629Z,7.53
2023-02-05T06:43:31.011Z,5.18
2023-02-05T06:46:00.457Z,6.13
2023-02-05T06:48:29.983Z,4.15
2023-02-05T06:51:02.061Z,5.22
2023-02-05T06:53:31.432Z,6.18
2023-02-05T06:56:01.060Z,6.18
2023-02-05T06:58:30.606Z,6.22
2023-02-05T07:01:00.035Z,6.20
2023-02-05T07:03:29.441Z,7.63
2023-02-05T07:05:58.858Z,8.05
2023-02-05T07:08:30.889Z,5.90
2023-02-05T07:11:00.454Z,7.05
2023-02-05T07:13:29.913Z,8.02
2023-02-05T07:15:59.474Z,5.05
2023-02-05T07:18:28.933Z,6.63
2023-02-05T07:20:58.340Z,7.40
2023-02-05T07:23:30.294Z,6.18
2023-02-05T07:25:59.788Z,7.50
2023-02-05T07:28:29.179Z,5.40
2023-02-05T07:31:00.246Z,9.20
2023-02-05T07:33:29.739Z,8.80
2023-02-05T07:35:59.101Z,6.38
2023-02-05T07:38:31.047Z,7.60
2023-02-05T07:41:00.472Z,10.13
2023-02-05T07:43:29.868Z,4.93
2023-02-05T07:46:00.606Z,5.90
2023-02-05T07:48:30.340Z,5.43
2023-02-05T07:50:59.772Z,8.80
2023-02-05T07:53:31.882Z,9.38
2023-02-05T07:56:05.014Z,8.05
2023-02-05T07:58:34.458Z,6.80
2023-02-05T08:01:04.574Z,8.27
2023-02-05T08:03:34.684Z,6.85
2023-02-05T08:06:06.901Z,7.45
2023-02-05T08:08:38.856Z,8.93
2023-02-05T08:11:09.295Z,19.95
2023-02-05T08:13:38.882Z,39.80
2023-02-05T08:16:08.951Z,75.10
2023-02-05T08:18:38.447Z,29.10
2023-02-05T08:21:08.376Z,32.77
2023-02-05T08:23:40.373Z,10.43
2023-02-05T08:26:09.746Z,21.98
2023-02-05T08:28:39.171Z,11.90
2023-02-05T08:31:13.153Z,6.10
2023-02-05T08:33:42.654Z,10.23
2023-02-05T08:36:12.973Z,8.17
2023-02-05T08:38:45.000Z,9.00
2023-02-05T08:41:15.191Z,10.17
2023-02-05T08:43:46.078Z,9.10
2023-02-05T08:46:17.683Z,7.47
2023-02-05T08:48:47.246Z,8.00
2023-02-05T08:51:17.532Z,9.20
2023-02-05T08:53:49.627Z,7.03
2023-02-05T08:56:20.255Z,5.97
2023-02-05T08:58:49.859Z,5.63
2023-02-05T09:01:19.866Z,5.80
2023-02-05T09:03:49.326Z,6.20
2023-02-05T09:06:18.953Z,6.40
2023-02-05T09:08:50.906Z,8.37
2023-02-05T09:11:23.583Z,7.60
2023-02-05T09:13:52.974Z,6.23
2023-02-05T09:16:22.566Z,5.32
2023-02-05T09:18:52.443Z,5.90
2023-02-05T09:21:21.870Z,9.82
2023-02-05T09:23:53.981Z,7.00
2023-02-05T09:26:24.061Z,10.85
2023-02-05T09:28:53.617Z,8.70
2023-02-05T09:31:23.718Z,8.63
2023-02-05T09:33:53.164Z,7.95
2023-02-05T09:36:24.430Z,9.97
2023-02-05T09:39:11.832Z,9.67
2023-02-05T09:41:50.013Z,6.80
2023-02-05T09:44:24.243Z,6.30
2023-02-05T09:46:58.824Z,7.03
2023-02-05T09:49:31.535Z,8.82
2023-02-05T09:52:04.191Z,14.63
2023-02-05T09:54:38.469Z,15.37
2023-02-05T09:57:10.693Z,10.35
2023-02-05T09:59:40.228Z,14.10
2023-02-05T10:02:21.819Z,10.10
2023-02-05T10:04:54.804Z,9.95
2023-02-05T10:07:38.324Z,7.65
2023-02-05T10:10:22.582Z,6.30
2023-02-05T10:13:24.265Z,8.85
2023-02-05T10:16:07.200Z,8.65
2023-02-05T10:18:47.250Z,10.05
2023-02-05T10:21:29.597Z,14.07
2023-02-05T10:24:15.647Z,8.20
2023-02-05T10:26:52.421Z,9.10
2023-02-05T10:29:28.667Z,11.48
2023-02-05T10:32:08.354Z,7.90
2023-02-05T10:34:50.620Z,10.67
2023-02-05T10:37:21.561Z,7.87
2023-02-05T10:39:51.819Z,8.53
2023-02-05T10:42:30.885Z,6.13
2023-02-05T10:45:06.727Z,6.63
2023-02-05T10:48:00.227Z,7.30
2023-02-05T10:50:33.760Z,8.50
2023-02-05T10:53:03.315Z,6.73
2023-02-05T10:55:33.127Z,11.95
2023-02-05T10:58:15.550Z,5.83
2023-02-05T11:00:44.985Z,7.30
2023-02-05T11:03:19.578Z,8.17
2023-02-05T11:05:49.120Z,7.30
2023-02-05T11:08:34.876Z,8.37
2023-02-05T11:11:05.415Z,8.10
2023-02-05T11:13:39.661Z,8.03
2023-02-05T11:16:11.100Z,45.80
2023-02-05T11:18:43.469Z,20.40
2023-02-05T11:21:13.468Z,116.33
2023-02-05T11:23:43.730Z,59.47
2023-02-05T11:26:20.591Z,9.73
2023-02-05T11:28:52.742Z,21.20
2023-02-05T11:31:26.030Z,38.43
2023-02-05T11:34:12.932Z,8.40
2023-02-05T11:36:52.532Z,11.00
2023-02-05T11:39:31.865Z,6.30
2023-02-05T11:42:02.881Z,9.70
2023-02-05T11:44:35.707Z,8.20
2023-02-05T11:47:05.449Z,9.17
2023-02-05T11:49:36.775Z,8.57
2023-02-05T11:52:11.830Z,6.83
2023-02-05T11:54:42.242Z,15.03
2023-02-05T11:57:32.815Z,7.97
2023-02-05T12:00:21.889Z,6.40
2023-02-05T12:02:54.186Z,8.10
2023-02-05T12:05:26.452Z,6.30
2023-02-05T12:07:59.730Z,7.90
2023-02-05T12:10:38.132Z,12.20
2023-02-05T12:13:14.035Z,15.57
2023-02-05T12:15:50.568Z,14.30
2023-02-05T12:18:25.739Z,10.80
2023-02-05T12:21:06.612Z,11.67
2023-02-05T12:23:57.701Z,6.70
2023-02-05T12:26:33.408Z,6.63
2023-02-05T12:29:11.816Z,9.17
2023-02-05T12:31:53.302Z,11.13
2023-02-05T12:34:28.000Z,7.50
2023-02-05T12:37:11.436Z,7.37
2023-02-05T12:39:44.396Z,7.67
2023-02-05T12:42:22.751Z,9.17
2023-02-05T12:45:05.833Z,7.60
2023-02-05T12:47:49.491Z,6.77
2023-02-05T12:50:43.368Z,13.27
2023-02-05T12:53:23.111Z,7.30
2023-02-05T12:56:06.874Z,7.97
2023-02-05T12:58:39.334Z,6.27
2023-02-05T13:01:12.957Z,8.37
2023-02-05T13:03:46.702Z,7.90
2023-02-05T13:06:19.429Z,12.80
2023-02-05T13:08:52.531Z,7.57
2023-02-05T13:11:25.632Z,7.00
2023-02-05T13:13:59.860Z,9.30
2023-02-05T13:16:35.598Z,7.47
2023-02-05T13:19:17.177Z,8.30
2023-02-05T13:21:59.521Z,10.20
2023-02-05T13:24:46.143Z,10.20
2023-02-05T13:27:36.681Z,6.50
2023-02-05T13:30:07.009Z,6.93
2023-02-05T13:32:37.524Z,8.17
2023-02-05T13:35:10.524Z,6.77
2023-02-05T13:37:53.830Z,8.13
2023-02-05T13:40:31.581Z,8.47
2023-02-05T13:43:34.090Z,13.10
2023-02-05T13:46:28.555Z,8.90
2023-02-05T13:49:35.480Z,12.63
2023-02-05T13:52:22.538Z,13.00
2023-02-05T13:55:10.162Z,10.70
2023-02-05T13:58:22.342Z,9.47
2023-02-05T14:00:59.381Z,11.43
2023-02-05T14:03:35.757Z,9.20
2023-02-05T14:06:16.503Z,9.27
2023-02-05T14:08:48.571Z,10.90
2023-02-05T14:11:19.252Z,8.83
2023-02-05T14:14:17.043Z,6.10
2023-02-05T14:16:49.715Z,10.20
2023-02-05T14:19:24.103Z,8.10
2023-02-05T14:22:12.842Z,9.70
2023-02-05T14:24:53.838Z,9.20
2023-02-05T14:27:49.699Z,11.50
2023-02-05T14:30:37.864Z,9.30
2023-02-05T14:33:30.350Z,8.43
2023-02-05T14:36:00.683Z,7.37
2023-02-05T14:38:34.851Z,10.50
2023-02-05T14:41:13.505Z,8.10
2023-02-05T14:43:44.050Z,7.20
2023-02-05T14:46:24.302Z,12.57
2023-02-05T14:48:58.234Z,9.90
2023-02-05T14:51:29.774Z,14.90
2023-02-05T14:54:01.409Z,15.80
2023-02-05T14:56:40.230Z,11.70
2023-02-05T14:59:23.194Z,12.43
2023-02-05T15:01:54.551Z,22.60
2023-02-05T15:04:42.555Z,19.60
2023-02-05T15:07:15.907Z,18.33
2023-02-05T15:09:48.806Z,11.53
2023-02-05T15:12:45.139Z,19.73
2023-02-05T15:15:33.362Z,29.27
2023-02-05T15:18:08.230Z,10.20
2023-02-05T15:20:40.389Z,11.50
2023-02-05T15:23:21.728Z,9.13
2023-02-05T15:25:57.291Z,10.80
2023-02-05T15:28:31.896Z,15.70
2023-02-05T15:31:09.449Z,28.10
2023-02-05T15:33:46.076Z,17.73
2023-02-05T15:36:22.292Z,18.00
2023-02-05T15:38:56.237Z,12.00
2023-02-05T15:41:26.750Z,8.43
2023-02-05T15:44:06.712Z,10.03
2023-02-05T15:46:36.475Z,14.63
2023-02-05T15:49:08.422Z,8.97
2023-02-05T15:51:39.011Z,13.03
2023-02-05T15:54:10.145Z,8.67
2023-02-05T15:56:42.311Z,11.33
2023-02-05T15:59:20.412Z,9.83
2023-02-05T16:01:51.528Z,11.73
2023-02-05T16:04:22.540Z,10.30
2023-02-05T16:06:52.227Z,11.00
2023-02-05T16:09:24.163Z,17.00
2023-02-05T16:11:54.150Z,13.80
2023-02-05T16:14:28.641Z,59.87
2023-02-05T16:17:05.128Z,20.60
2023-02-05T16:19:36.606Z,64.63
2023-02-05T16:22:13.402Z,44.50
2023-02-05T16:24:44.632Z,14.10
2023-02-05T16:27:17.126Z,18.53
2023-02-05T16:29:52.197Z,35.37
2023-02-05T16:32:28.411Z,17.53
2023-02-05T16:34:58.017Z,16.07
2023-02-05T16:37:30.769Z,17.17
2023-02-05T16:40:01.655Z,15.00
2023-02-05T16:42:38.133Z,15.03
2023-02-05T16:45:34.118Z,14.53
2023-02-05T16:48:28.315Z,13.90
2023-02-05T16:50:57.925Z,17.43
2023-02-05T16:53:29.425Z,20.27
2023-02-05T16:56:02.064Z,15.40
2023-02-05T16:58:39.589Z,18.60
2023-02-05T17:01:11.684Z,33.30
2023-02-05T17:03:42.635Z,20.73
2023-02-05T17:06:15.699Z,23.70
2023-02-05T17:08:47.273Z,23.77
2023-02-05T17:11:35.634Z,25.30
2023-02-05T17:14:23.567Z,26.37
2023-02-05T17:16:59.650Z,22.80
2023-02-05T17:19:30.411Z,25.20
2023-02-05T17:22:21.699Z,30.40
2023-02-05T17:24:52.097Z,25.43
2023-02-05T17:27:26.203Z,29.70
2023-02-05T17:29:55.790Z,26.47
2023-02-05T17:32:29.443Z,32.97
2023-02-05T17:34:59.940Z,27.10
2023-02-05T17:37:29.346Z,34.67
2023-02-05T17:39:58.712Z,28.37
2023-02-05T17:42:31.173Z,37.77
2023-02-05T17:45:00.643Z,31.70
2023-02-05T17:47:32.639Z,30.27
2023-02-05T17:50:02.108Z,63.97
2023-02-05T17:52:31.548Z,48.60
2023-02-05T17:55:00.967Z,51.90
2023-02-05T17:57:33.779Z,115.23
2023-02-05T18:00:03.363Z,60.83
2023-02-05T18:02:35.413Z,60.47
2023-02-05T18:05:05.182Z,43.60
2023-02-05T18:07:36.516Z,46.83
2023-02-05T18:10:06.199Z,31.93
2023-02-05T18:12:35.962Z,34.37
2023-02-05T18:15:05.863Z,37.37
2023-02-05T18:17:37.938Z,28.90
2023-02-05T18:20:08.670Z,32.97
2023-02-05T18:22:38.662Z,28.70
2023-02-05T18:25:09.909Z,26.67
2023-02-05T18:27:39.563Z,34.43
2023-02-05T18:30:10.180Z,41.17
2023-02-05T18:32:42.211Z,29.27
2023-02-05T18:35:14.512Z,33.27
2023-02-05T18:37:44.487Z,35.33
2023-02-05T18:40:15.230Z,33.93
2023-02-05T18:42:47.009Z,35.27
2023-02-05T18:45:16.509Z,40.57
2023-02-05T18:47:48.510Z,34.30
2023-02-05T18:50:18.989Z,33.20
2023-02-05T18:52:48.410Z,43.37
2023-02-05T18:55:17.907Z,35.30
2023-02-05T18:57:47.372Z,34.17
2023-02-05T19:00:17.752Z,50.20
2023-02-05T19:02:49.742Z,46.20
2023-02-05T19:05:19.217Z,39.17
2023-02-05T19:07:48.591Z,40.10
2023-02-05T19:10:18.984Z,37.77
2023-02-05T19:12:48.975Z,39.93
2023-02-05T19:15:18.472Z,38.27
2023-02-05T19:17:50.503Z,49.10
2023-02-05T19:20:20.331Z,39.10
2023-02-05T19:22:49.740Z,41.63
2023-02-05T19:25:19.278Z,36.43
2023-02-05T19:27:48.767Z,44.57
2023-02-05T19:30:18.748Z,37.97
2023-02-05T19:32:50.749Z,38.20
2023-02-05T19:35:20.394Z,37.87
2023-02-05T19:37:49.758Z,41.07
2023-02-05T19:40:19.822Z,51.20
2023-02-05T19:42:49.210Z,54.97
2023-02-05T19:45:18.716Z,74.75
2023-02-05T19:47:50.666Z,53.80
2023-02-05T19:50:20.145Z,53.63
2023-02-05T19:52:50.685Z,58.83
2023-02-05T19:55:20.321Z,88.63
2023-02-05T19:57:49.761Z,56.13
2023-02-05T20:00:19.935Z,45.03
2023-02-05T20:02:55.735Z,50.47
2023-02-05T20:05:25.519Z,48.20
2023-02-05T20:07:55.653Z,41.80
2023-02-05T20:10:25.086Z,45.30
2023-02-05T20:12:54.755Z,53.20
2023-02-05T20:15:24.223Z,34.97
2023-02-05T20:17:58.423Z,43.80
2023-02-05T20:20:33.516Z,36.17
2023-02-05T20:23:03.315Z,41.27
2023-02-05T20:25:32.802Z,45.33
2023-02-05T20:28:02.299Z,43.97
2023-02-05T20:30:44.387Z,43.17
2023-02-05T20:33:16.449Z,46.70
2023-02-05T20:35:45.870Z,42.53
2023-02-05T20:38:15.333Z,43.33
2023-02-05T20:40:44.805Z,45.50
2023-02-05T20:43:14.229Z,43.33
2023-02-05T20:45:43.662Z,46.97
2023-02-05T20:48:15.719Z,49.10
2023-02-05T20:50:45.106Z,52.33
2023-02-05T20:53:14.483Z,47.43
2023-02-05T20:55:43.876Z,40.90
2023-02-05T20:58:13.294Z,43.40
2023-02-05T21:00:42.941Z,53.97
2023-02-05T21:03:12.402Z,55.58
2023-02-05T21:05:44.816Z,48.92
2023-02-05T21:08:14.215Z,55.77
2023-02-05T21:10:43.659Z,44.80
2023-02-05T21:13:13.089Z,46.95
2023-02-05T21:15:42.467Z,52.43
2023-02-05T21:18:12.854Z,51.55
2023-02-05T21:20:44.894Z,49.85
2023-02-05T21:23:14.305Z,50.50
2023-02-05T21:25:44.011Z,60.55
2023-02-05T21:28:13.892Z,59.20
2023-02-05T21:30:44.082Z,55.72
2023-02-05T21:33:13.486Z,55.50
2023-02-05T21:35:45.506Z,45.45
2023-02-05T21:38:14.931Z,59.03
2023-02-05T21:40:47.165Z,46.88
2023-02-05T21:43:16.562Z,52.97
2023-02-05T21:45:46.110Z,53.13
2023-02-05T21:48:15.562Z,46.88
2023-02-05T21:50:47.599Z,49.75
2023-02-05T21:53:17.607Z,52.17
2023-02-05T21:55:46.996Z,51.10
2023-02-05T21:58:16.392Z,55.42
2023-02-05T22:00:45.816Z,46.03
2023-02-05T22:03:15.305Z,48.13
2023-02-05T22:05:47.300Z,50.13
2023-02-05T22:08:16.690Z,48.75
2023-02-05T22:10:46.052Z,46.35
2023-02-05T22:13:15.515Z,54.47
2023-02-05T22:15:44.967Z,43.45
2023-02-05T22:18:14.402Z,54.05
2023-02-05T22:20:44.236Z,47.33
2023-02-05T22:23:16.298Z,51.45
2023-02-05T22:25:48.904Z,46.05
2023-02-05T22:28:18.473Z,53.30
2023-02-05T22:30:47.865Z,51.35
2023-02-05T22:33:17.264Z,54.30
2023-02-05T22:35:46.639Z,44.38
2023-02-05T22:38:18.689Z,49.95
2023-02-05T22:40:48.097Z,48.75
2023-02-05T22:43:17.537Z,47.72
2023-02-05T22:45:47.052Z,45.92
2023-02-05T22:48:16.501Z,53.92
2023-02-05T22:50:46.753Z,51.33
2023-02-05T22:53:18.794Z,52.90
2023-02-05T22:55:48.227Z,46.45
2023-02-05T22:58:17.635Z,53.47
2023-02-05T23:00:47.404Z,55.80
2023-02-05T23:03:16.813Z,55.60
2023-02-05T23:05:46.908Z,47.72
2023-02-05T23:08:19.113Z,53.17
2023-02-05T23:10:48.643Z,51.78
2023-02-05T23:13:18.069Z,43.92
2023-02-05T23:15:47.520Z,51.13
2023-02-05T23:18:16.894Z,47.22
2023-02-05T23:20:46.329Z,51.05
2023-02-05T23:23:15.770Z,54.05
2023-02-05T23:25:50.044Z,44.30
2023-02-05T23:28:19.744Z,45.50
2023-02-05T23:30:49.283Z,49.90
2023-02-05T23:33:19.534Z,47.88
2023-02-05T23:35:48.911Z,44.38
2023-02-05T23:38:18.305Z,43.35
2023-02-05T23:40:50.438Z,47.17
2023-02-05T23:43:20.054Z,48.72
2023-02-05T23:45:49.602Z,43.17
2023-02-05T23:48:19.359Z,45.50
2023-02-05T23:50:51.768Z,45.70
2023-02-05T23:53:22.199Z,49.92
2023-02-05T23:55:55.329Z,50.60
2023-02-05T23:58:27.898Z,35.17
